Time;durP1;ratioP1;P1;durP2;ratioP2;P2;SDS_P1;SDS_P2;PMS_P1;PMS_P2;Temp;Humidity;BMP_temperature;BMP_pressure;BME280_temperature;BME280_humidity;BME280_pressure;Samples;Min_cycle;Max_cycle;Signal;HPM_P1;HPM_P2
2021/07/08 00:01:25;;;;;;;7.22;3.28;;;19.10;99.90;;;;;;5034568;28;20241;-77
2021/07/08 00:03:52;;;;;;;4.95;2.60;;;19.00;99.90;;;;;;5034286;28;20242;-77
2021/07/08 00:06:19;;;;;;;4.28;2.72;;;18.90;99.90;;;;;;5030279;28;20227;-77
2021/07/08 00:08:46;;;;;;;7.32;3.38;;;19.00;99.90;;;;;;5029295;28;20229;-77
2021/07/08 00:11:13;;;;;;;3.00;2.65;;;18.90;99.90;;;;;;5030582;28;20233;-77
2021/07/08 00:13:40;;;;;;;3.38;2.40;;;18.90;99.90;;;;;;5035719;28;20203;-77
2021/07/08 00:16:07;;;;;;;4.50;2.70;;;18.90;99.90;;;;;;5029166;28;20207;-76
2021/07/08 00:18:36;;;;;;;5.57;2.85;;;18.90;99.90;;;;;;5029768;28;20630;-76
2021/07/08 00:21:03;;;;;;;3.92;2.80;;;18.80;99.90;;;;;;5038501;28;20256;-77
2021/07/08 00:23:30;;;;;;;3.42;3.00;;;18.80;99.90;;;;;;5029990;28;20655;-77
2021/07/08 00:25:58;;;;;;;5.78;2.97;;;18.80;99.90;;;;;;5039413;28;20225;-77
2021/07/08 00:28:25;;;;;;;3.15;2.80;;;18.70;99.90;;;;;;5029517;28;20223;-77
2021/07/08 00:30:53;;;;;;;2.95;2.75;;;18.60;99.90;;;;;;5029245;28;20203;-76
2021/07/08 00:33:20;;;;;;;4.05;2.83;;;18.60;99.90;;;;;;5029778;28;20238;-77
2021/07/08 00:35:49;;;;;;;4.50;3.10;;;18.60;99.90;;;;;;5028885;28;20239;-76
2021/07/08 00:38:16;;;;;;;8.85;2.75;;;18.50;99.90;;;;;;5032885;28;20202;-76
2021/07/08 00:40:44;;;;;;;3.13;2.72;;;18.60;99.90;;;;;;5030977;28;20199;-77
2021/07/08 00:43:11;;;;;;;4.95;3.10;;;18.50;99.90;;;;;;5034088;28;20265;-77
2021/07/08 00:45:38;;;;;;;8.23;3.10;;;18.50;99.90;;;;;;5029031;28;20195;-77
2021/07/08 00:48:06;;;;;;;6.35;3.30;;;18.50;99.90;;;;;;5034524;28;20230;-76
2021/07/08 00:50:35;;;;;;;7.10;3.70;;;18.50;99.90;;;;;;5034345;28;20226;-76
2021/07/08 00:53:04;;;;;;;6.03;2.88;;;18.50;99.90;;;;;;5028331;28;20223;-76
2021/07/08 00:55:31;;;;;;;5.47;2.95;;;18.50;99.90;;;;;;5033041;28;20276;-76
2021/07/08 00:57:58;;;;;;;6.05;3.10;;;18.50;99.90;;;;;;5038401;28;20226;-77
2021/07/08 01:00:27;;;;;;;10.13;3.50;;;18.50;99.90;;;;;;5027726;28;20206;-76
2021/07/08 01:02:55;;;;;;;4.28;3.50;;;18.60;99.90;;;;;;5033714;28;20218;-76
2021/07/08 01:05:24;;;;;;;5.28;2.92;;;18.50;99.90;;;;;;5029396;28;20268;-76
2021/07/08 01:07:52;;;;;;;3.05;2.58;;;18.50;99.90;;;;;;5029702;28;20234;-76
2021/07/08 01:10:20;;;;;;;5.57;3.22;;;18.60;99.90;;;;;;5030866;28;20271;-76
2021/07/08 01:12:47;;;;;;;11.50;3.20;;;18.70;99.90;;;;;;5029024;28;20203;-76
2021/07/08 01:15:15;;;;;;;3.20;2.90;;;18.70;99.90;;;;;;5027911;28;20208;-76
2021/07/08 01:17:43;;;;;;;3.22;2.92;;;18.70;99.90;;;;;;5027130;28;20654;-76
2021/07/08 01:20:13;;;;;;;5.55;3.08;;;18.70;99.90;;;;;;5027956;28;20216;-76
2021/07/08 01:22:42;;;;;;;6.93;3.20;;;18.70;99.90;;;;;;5029863;28;20208;-76
2021/07/08 01:25:11;;;;;;;9.35;2.83;;;18.70;99.90;;;;;;5034976;28;20214;-77
2021/07/08 01:27:39;;;;;;;5.75;3.35;;;18.80;99.90;;;;;;5027822;28;20261;-77
2021/07/08 01:30:09;;;;;;;4.97;3.25;;;18.70;99.90;;;;;;5027294;28;20218;-77
2021/07/08 01:32:36;;;;;;;3.50;3.10;;;18.80;99.90;;;;;;5031584;28;20199;-76
2021/07/08 01:35:04;;;;;;;6.22;3.10;;;18.80;99.90;;;;;;5032939;28;20207;-76
2021/07/08 01:37:31;;;;;;;3.13;2.83;;;18.70;99.90;;;;;;5028434;28;20347;-77
2021/07/08 01:40:01;;;;;;;6.57;2.90;;;18.70;99.90;;;;;;5034439;28;20241;-76
2021/07/08 01:42:29;;;;;;;4.15;3.00;;;18.80;99.90;;;;;;5036889;28;20199;-76
2021/07/08 01:44:56;;;;;;;3.33;2.70;;;18.70;99.90;;;;;;5028063;28;20215;-77
2021/07/08 01:47:23;;;;;;;3.78;3.03;;;18.80;99.90;;;;;;5028730;28;20245;-76
2021/07/08 01:49:51;;;;;;;3.63;3.33;;;18.80;99.90;;;;;;5032361;28;20202;-77
2021/07/08 01:55:09;;;;;;;5.32;2.50;;;18.70;99.90;;;;;;5044647;28;20225;-77
2021/07/08 01:57:43;;;;;;;3.20;2.90;;;18.70;99.90;;;;;;5039501;28;20269;-76
2021/07/08 02:00:12;;;;;;;8.18;3.05;;;18.60;99.90;;;;;;5037493;28;20265;-77
2021/07/08 02:02:40;;;;;;;4.13;2.90;;;18.60;99.90;;;;;;5033370;28;20289;-76
2021/07/08 02:05:08;;;;;;;4.28;2.90;;;18.60;99.90;;;;;;5045318;28;20198;-77
2021/07/08 02:07:35;;;;;;;7.75;3.33;;;18.50;99.90;;;;;;5030974;28;20231;-77
2021/07/08 02:10:05;;;;;;;4.15;3.75;;;18.50;99.90;;;;;;5044654;28;20210;-77
2021/07/08 02:12:40;;;;;;;4.35;3.08;;;18.40;99.90;;;;;;5043991;28;20199;-76
2021/07/08 02:15:10;;;;;;;3.60;2.92;;;18.30;99.90;;;;;;5041351;28;20233;-77
2021/07/08 02:17:37;;;;;;;6.35;2.97;;;18.30;99.90;;;;;;5030897;28;20203;-76
2021/07/08 02:20:06;;;;;;;7.35;3.33;;;18.30;99.90;;;;;;5033257;28;20203;-77
2021/07/08 02:22:33;;;;;;;9.82;3.53;;;18.30;99.90;;;;;;5041338;28;20198;-77
2021/07/08 02:25:00;;;;;;;3.75;3.33;;;18.20;99.90;;;;;;5028160;28;20225;-77
2021/07/08 02:27:29;;;;;;;5.07;3.53;;;18.20;99.90;;;;;;5028304;28;20238;-76
2021/07/08 02:29:56;;;;;;;5.68;3.55;;;18.10;99.90;;;;;;5032569;28;20261;-76
2021/07/08 02:32:22;;;;;;;3.65;3.20;;;18.10;99.90;;;;;;5032311;28;20222;-77
2021/07/08 02:34:49;;;;;;;3.70;3.22;;;18.10;99.90;;;;;;5029741;28;20346;-77
2021/07/08 02:37:17;;;;;;;5.68;3.53;;;18.00;99.90;;;;;;5033609;28;20204;-77
2021/07/08 02:39:44;;;;;;;6.35;3.80;;;17.90;99.90;;;;;;5027652;28;20265;-77
2021/07/08 02:42:11;;;;;;;5.15;3.55;;;17.90;99.90;;;;;;5040570;28;20225;-77
2021/07/08 02:44:39;;;;;;;4.47;3.33;;;17.90;99.90;;;;;;5032223;28;20293;-77
2021/07/08 02:47:06;;;;;;;6.18;3.55;;;17.80;99.90;;;;;;5037325;28;20617;-77
2021/07/08 02:49:33;;;;;;;4.50;2.70;;;17.70;99.90;;;;;;5035209;28;20199;-76
2021/07/08 02:52:00;;;;;;;7.13;3.58;;;17.70;99.90;;;;;;5031362;28;20219;-77
2021/07/08 02:54:27;;;;;;;3.72;3.25;;;17.70;99.90;;;;;;5043294;28;20207;-77
2021/07/08 02:56:54;;;;;;;6.03;3.63;;;17.70;99.90;;;;;;5048384;28;20198;-77
2021/07/08 02:59:20;;;;;;;4.47;3.13;;;17.80;99.90;;;;;;5041744;28;20202;-77
2021/07/08 03:01:49;;;;;;;8.98;4.43;;;17.70;99.90;;;;;;5036165;28;20366;-77
2021/07/08 03:04:16;;;;;;;6.43;3.65;;;17.70;99.90;;;;;;5019352;28;20230;-76
2021/07/08 03:06:43;;;;;;;7.90;3.60;;;17.60;99.90;;;;;;5037695;28;20199;-77
2021/07/08 03:09:11;;;;;;;5.18;3.20;;;17.60;99.90;;;;;;5049795;28;20697;-77
2021/07/08 03:11:38;;;;;;;3.25;3.00;;;17.60;99.90;;;;;;5041149;28;20242;-77
2021/07/08 03:14:05;;;;;;;8.27;3.75;;;17.60;99.90;;;;;;5031225;28;20207;-77
2021/07/08 03:16:32;;;;;;;6.32;3.90;;;17.60;99.90;;;;;;5046042;28;20242;-77
2021/07/08 03:19:00;;;;;;;3.53;3.30;;;17.50;99.90;;;;;;5037874;28;20199;-77
2021/07/08 03:21:27;;;;;;;3.58;3.28;;;17.50;99.90;;;;;;5036685;28;20199;-77
2021/07/08 03:23:54;;;;;;;4.85;3.03;;;17.50;99.90;;;;;;5032377;28;20508;-78
2021/07/08 03:26:21;;;;;;;10.93;4.50;;;17.50;99.90;;;;;;5039359;28;20195;-78
2021/07/08 03:28:48;;;;;;;7.75;4.30;;;17.40;99.90;;;;;;5040944;28;20235;-78
2021/07/08 03:31:18;;;;;;;5.38;4.53;;;17.30;99.90;;;;;;5041112;28;20237;-78
2021/07/08 03:33:45;;;;;;;4.10;3.65;;;17.30;99.90;;;;;;5039303;28;20198;-77
2021/07/08 03:36:13;;;;;;;7.78;4.10;;;17.30;99.90;;;;;;5035216;28;20213;-77
2021/07/08 03:38:40;;;;;;;9.27;3.92;;;17.30;99.90;;;;;;5039875;28;20250;-78
2021/07/08 03:41:07;;;;;;;4.20;3.65;;;17.30;99.90;;;;;;5040790;28;20214;-77
2021/07/08 03:43:34;;;;;;;6.95;4.13;;;17.30;99.90;;;;;;5041081;28;20223;-78
2021/07/08 03:46:01;;;;;;;5.57;4.00;;;17.30;99.90;;;;;;5037920;28;20640;-78
2021/07/08 03:48:28;;;;;;;4.78;3.42;;;17.30;99.90;;;;;;5039910;28;20227;-77
2021/07/08 03:50:55;;;;;;;5.03;4.25;;;17.30;99.90;;;;;;5018693;28;20198;-78
2021/07/08 03:53:23;;;;;;;9.07;4.65;;;17.30;99.90;;;;;;5049008;28;20248;-77
2021/07/08 03:55:50;;;;;;;8.55;4.63;;;17.30;99.90;;;;;;5039026;28;20210;-78
2021/07/08 03:58:17;;;;;;;8.60;3.50;;;17.30;99.90;;;;;;5044069;28;20194;-77
2021/07/08 04:00:45;;;;;;;5.30;4.80;;;17.30;99.90;;;;;;5046299;28;20210;-78
2021/07/08 04:03:14;;;;;;;5.20;4.57;;;17.30;99.90;;;;;;5032515;28;20233;-77
2021/07/08 04:05:41;;;;;;;5.80;4.43;;;17.20;99.90;;;;;;5036723;28;20278;-77
2021/07/08 04:08:09;;;;;;;5.47;3.95;;;17.20;99.90;;;;;;5044733;28;20222;-78
2021/07/08 04:10:39;;;;;;;10.25;4.25;;;17.20;99.90;;;;;;5036831;28;20317;-78
2021/07/08 04:13:10;;;;;;;6.25;5.65;;;17.20;99.90;;;;;;5038594;28;20195;-78
2021/07/08 04:15:38;;;;;;;7.25;4.32;;;17.20;99.90;;;;;;5038896;28;20204;-78
2021/07/08 04:18:05;;;;;;;8.48;5.55;;;17.20;99.90;;;;;;5042672;28;20257;-77
2021/07/08 04:20:33;;;;;;;8.02;5.10;;;17.20;99.90;;;;;;5043349;28;20199;-77
2021/07/08 04:23:00;;;;;;;7.53;4.30;;;17.20;99.90;;;;;;5037472;28;20203;-77
2021/07/08 04:25:28;;;;;;;4.93;3.50;;;17.20;99.90;;;;;;5043776;28;20239;-77
2021/07/08 04:27:56;;;;;;;5.68;4.15;;;17.20;99.90;;;;;;5033206;28;20202;-77
2021/07/08 04:30:25;;;;;;;4.93;3.63;;;17.30;99.90;;;;;;5046133;28;20678;-77
2021/07/08 04:32:52;;;;;;;6.35;4.38;;;17.30;99.90;;;;;;5034935;28;20675;-77
2021/07/08 04:35:21;;;;;;;7.45;4.82;;;17.40;99.90;;;;;;5035763;28;20230;-78
2021/07/08 04:37:48;;;;;;;7.35;5.32;;;17.40;99.90;;;;;;5036168;28;20211;-77
2021/07/08 04:40:18;;;;;;;4.78;4.38;;;17.40;99.90;;;;;;5044367;28;20203;-78
2021/07/08 04:42:46;;;;;;;7.70;4.57;;;17.40;99.90;;;;;;5041634;28;20206;-77
2021/07/08 04:45:15;;;;;;;9.90;5.28;;;17.50;99.90;;;;;;5044539;28;20194;-77
2021/07/08 04:47:43;;;;;;;6.13;5.60;;;17.50;99.90;;;;;;5036700;28;20241;-78
2021/07/08 04:50:13;;;;;;;6.78;5.13;;;17.60;99.90;;;;;;5036641;28;20234;-78
2021/07/08 04:52:40;;;;;;;5.90;5.40;;;17.60;99.90;;;;;;5042522;28;20275;-78
2021/07/08 04:55:08;;;;;;;6.38;4.28;;;17.60;99.90;;;;;;5043976;28;20211;-78
2021/07/08 04:57:36;;;;;;;6.28;4.30;;;17.70;99.90;;;;;;5037901;28;20218;-77
2021/07/08 05:00:04;;;;;;;5.97;4.22;;;17.70;99.90;;;;;;5040778;28;20229;-77
2021/07/08 05:02:32;;;;;;;3.95;3.58;;;17.80;99.90;;;;;;5035217;28;20234;-77
2021/07/08 05:04:59;;;;;;;8.05;4.22;;;17.90;99.90;;;;;;5037373;28;20229;-77
2021/07/08 05:07:26;;;;;;;9.60;4.03;;;17.90;99.90;;;;;;5033288;28;20199;-77
2021/07/08 05:09:53;;;;;;;11.75;4.60;;;18.00;99.90;;;;;;5035846;28;20241;-78
2021/07/08 05:12:20;;;;;;;6.55;4.47;;;18.00;99.90;;;;;;5036545;28;20203;-78
2021/07/08 05:14:47;;;;;;;6.43;4.40;;;18.00;99.90;;;;;;5041029;28;20202;-78
2021/07/08 05:17:14;;;;;;;4.22;3.85;;;18.10;99.90;;;;;;5036369;28;20213;-78
2021/07/08 05:19:42;;;;;;;4.95;3.90;;;18.30;99.90;;;;;;5031980;28;20203;-78
2021/07/08 05:22:09;;;;;;;5.45;4.40;;;18.30;99.90;;;;;;5039171;28;20227;-79
2021/07/08 05:24:37;;;;;;;14.77;4.70;;;18.30;99.90;;;;;;5043082;28;20234;-77
2021/07/08 05:27:05;;;;;;;5.40;4.90;;;18.40;99.90;;;;;;5031404;28;20230;-77
2021/07/08 05:29:32;;;;;;;9.35;3.80;;;18.50;99.90;;;;;;5042647;28;20226;-77
2021/07/08 05:31:59;;;;;;;8.05;5.15;;;18.50;99.90;;;;;;5038524;28;20198;-78
2021/07/08 05:34:26;;;;;;;5.15;4.47;;;18.50;99.90;;;;;;5044295;28;20194;-78
2021/07/08 05:36:54;;;;;;;7.63;4.07;;;18.60;99.90;;;;;;5040748;28;20221;-78
2021/07/08 05:39:21;;;;;;;5.90;4.43;;;18.60;99.90;;;;;;5037370;28;20195;-78
2021/07/08 05:41:48;;;;;;;4.70;4.20;;;18.60;99.90;;;;;;5042110;28;20252;-77
2021/07/08 05:44:15;;;;;;;4.82;4.43;;;18.60;99.90;;;;;;5049610;28;20203;-78
2021/07/08 05:52:05;;;;;;;7.00;4.70;;;19.00;99.90;;;;;;5046561;28;20212;-78
2021/07/08 05:54:32;;;;;;;4.72;3.88;;;19.10;99.90;;;;;;5036903;28;20195;-78
2021/07/08 05:57:00;;;;;;;7.47;4.25;;;19.10;99.90;;;;;;5042791;28;20657;-78
2021/07/08 05:59:28;;;;;;;8.20;5.00;;;19.20;99.90;;;;;;5033816;28;20212;-78
2021/07/08 06:01:56;;;;;;;6.93;5.15;;;19.30;99.90;;;;;;5033272;28;20237;-78
2021/07/08 06:04:22;;;;;;;7.75;4.68;;;19.40;99.90;;;;;;5035053;28;20231;-78
2021/07/08 06:06:50;;;;;;;8.95;4.28;;;19.50;99.90;;;;;;5035440;28;20199;-77
2021/07/08 06:09:18;;;;;;;10.48;4.32;;;19.60;99.90;;;;;;5040921;28;20246;-78
2021/07/08 06:11:45;;;;;;;4.20;3.80;;;19.70;99.90;;;;;;5037833;28;20207;-77
2021/07/08 06:14:12;;;;;;;5.78;4.65;;;19.90;99.90;;;;;;5042006;28;20259;-77
2021/07/08 06:16:39;;;;;;;6.85;4.18;;;20.00;99.90;;;;;;5034673;28;20278;-78
2021/07/08 06:19:06;;;;;;;8.32;4.85;;;20.00;99.90;;;;;;5029697;28;20254;-77
2021/07/08 06:21:33;;;;;;;11.45;5.75;;;20.00;99.90;;;;;;5040350;28;20211;-78
2021/07/08 06:24:00;;;;;;;5.25;3.90;;;20.20;99.90;;;;;;5052166;28;20197;-77
2021/07/08 06:26:28;;;;;;;6.97;4.95;;;20.30;99.90;;;;;;5037775;28;20207;-78
2021/07/08 06:28:55;;;;;;;7.40;4.80;;;20.40;99.90;;;;;;5044701;28;20273;-77
2021/07/08 06:31:22;;;;;;;5.50;4.70;;;20.50;99.90;;;;;;5035361;28;20224;-77
2021/07/08 06:33:49;;;;;;;6.78;4.30;;;20.50;99.90;;;;;;5035652;28;20211;-77
2021/07/08 06:36:16;;;;;;;7.60;4.75;;;20.60;99.90;;;;;;5046688;28;20207;-77
2021/07/08 06:38:43;;;;;;;12.10;5.22;;;20.60;99.90;;;;;;5042522;28;20228;-77
2021/07/08 06:41:10;;;;;;;9.40;4.95;;;20.70;99.90;;;;;;5032007;28;20510;-77
2021/07/08 06:43:38;;;;;;;7.50;4.35;;;20.80;99.90;;;;;;5033560;28;20568;-77
2021/07/08 06:46:05;;;;;;;8.80;4.57;;;20.90;99.90;;;;;;5033238;28;20211;-78
2021/07/08 06:48:32;;;;;;;12.02;4.85;;;21.10;99.90;;;;;;5037031;28;20229;-77
2021/07/08 06:50:59;;;;;;;10.32;5.13;;;21.20;99.90;;;;;;5043619;28;20206;-78
2021/07/08 06:53:26;;;;;;;9.63;4.72;;;21.50;99.90;;;;;;5036741;28;20265;-79
2021/07/08 06:55:53;;;;;;;11.70;4.70;;;21.80;99.90;;;;;;5033522;28;20222;-78
2021/07/08 06:58:20;;;;;;;7.78;5.20;;;22.00;99.90;;;;;;5041960;28;20663;-78
2021/07/08 07:00:48;;;;;;;12.10;4.25;;;22.20;99.90;;;;;;5033226;28;20195;-78
2021/07/08 07:03:15;;;;;;;11.48;4.82;;;22.50;99.90;;;;;;5042909;28;20277;-78
2021/07/08 07:05:42;;;;;;;7.28;4.00;;;22.60;99.90;;;;;;5037564;28;20647;-79
2021/07/08 07:08:09;;;;;;;11.90;5.22;;;22.70;99.90;;;;;;5038572;28;20210;-78
2021/07/08 07:21:21;;;;;;;4.47;3.83;;;24.20;99.90;;;;;;5042462;28;20233;-78
2021/07/08 07:23:49;;;;;;;6.53;3.65;;;24.50;99.90;;;;;;5044906;28;20206;-79
2021/07/08 07:26:20;;;;;;;10.48;3.67;;;24.80;99.90;;;;;;5037446;28;20205;-79
2021/07/08 07:28:55;;;;;;;6.88;3.58;;;25.10;99.90;;;;;;5031289;28;20218;-79
2021/07/08 07:34:14;;;;;;;6.57;3.78;;;25.40;99.90;;;;;;5033405;28;20513;-79
2021/07/08 07:42:03;;;;;;;5.25;3.00;;;25.20;99.90;;;;;;5032961;28;20214;-79
2021/07/08 07:44:30;;;;;;;6.97;3.50;;;25.00;99.90;;;;;;5036218;28;20195;-79
2021/07/08 07:46:58;;;;;;;7.20;3.35;;;25.00;99.90;;;;;;5024422;28;20232;-79
2021/07/08 07:49:25;;;;;;;5.80;3.17;;;24.80;99.90;;;;;;5036100;28;20254;-79
2021/07/08 07:51:52;;;;;;;10.63;3.75;;;24.70;99.90;;;;;;5042053;28;20271;-79
2021/07/08 07:54:19;;;;;;;7.28;3.83;;;24.60;99.90;;;;;;5043685;28;20210;-79
2021/07/08 07:56:46;;;;;;;5.47;3.58;;;24.50;99.90;;;;;;5037802;28;20592;-79
2021/07/08 07:59:12;;;;;;;6.90;3.80;;;24.40;99.90;;;;;;5032205;28;20250;-79
2021/07/08 08:01:39;;;;;;;9.25;4.22;;;24.40;99.90;;;;;;5039684;28;20202;-79
2021/07/08 08:04:08;;;;;;;7.55;3.90;;;24.40;99.90;;;;;;5039334;28;20296;-79
2021/07/08 08:09:19;;;;;;;5.78;3.78;;;24.30;99.90;;;;;;5040040;28;20244;-79
2021/07/08 08:11:46;;;;;;;7.38;3.70;;;24.40;99.90;;;;;;5031069;28;20202;-79
2021/07/08 08:14:13;;;;;;;11.60;4.40;;;24.40;99.90;;;;;;5037237;28;20198;-79
2021/07/08 08:16:40;;;;;;;7.85;3.17;;;24.50;99.90;;;;;;5032631;28;20203;-79
2021/07/08 08:19:08;;;;;;;6.68;4.38;;;24.60;99.90;;;;;;5031259;28;20214;-79
2021/07/08 08:21:35;;;;;;;11.88;3.90;;;24.70;99.90;;;;;;5032882;28;20225;-79
2021/07/08 08:24:02;;;;;;;5.45;3.40;;;24.90;99.90;;;;;;5039632;28;20199;-79
2021/07/08 08:26:29;;;;;;;8.43;3.58;;;25.00;99.90;;;;;;5041407;28;20211;-79
2021/07/08 08:28:56;;;;;;;5.80;4.05;;;25.20;99.90;;;;;;5033786;28;20206;-79
2021/07/08 08:31:23;;;;;;;9.73;3.95;;;25.30;99.90;;;;;;5043454;28;20203;-79
2021/07/08 08:33:50;;;;;;;6.68;3.92;;;25.50;99.90;;;;;;5037760;28;20207;-79
2021/07/08 08:36:18;;;;;;;13.38;4.07;;;25.80;99.90;;;;;;5041348;28;20206;-79
2021/07/08 08:38:45;;;;;;;8.20;3.85;;;25.90;99.90;;;;;;5030294;28;20223;-79
2021/07/08 08:41:12;;;;;;;4.60;3.08;;;26.00;99.90;;;;;;5043618;28;20202;-79
2021/07/08 08:43:41;;;;;;;8.13;4.82;;;26.30;99.90;;;;;;5034092;28;20211;-79
2021/07/08 08:46:07;;;;;;;4.57;3.17;;;26.50;99.90;;;;;;5046977;28;20229;-79
2021/07/08 08:48:35;;;;;;;8.25;2.83;;;26.50;99.90;;;;;;5037219;28;20226;-79
2021/07/08 08:51:03;;;;;;;5.50;2.78;;;26.60;99.90;;;;;;5044347;28;20294;-79
2021/07/08 08:53:32;;;;;;;4.53;3.03;;;26.70;99.90;;;;;;5047751;28;20199;-79
2021/07/08 08:55:59;;;;;;;9.20;2.85;;;26.70;99.90;;;;;;5047843;28;20206;-79
2021/07/08 08:58:26;;;;;;;2.72;2.35;;;26.60;99.90;;;;;;5035119;28;20199;-79
2021/07/08 09:00:54;;;;;;;7.32;2.88;;;26.60;99.90;;;;;;5035205;28;20206;-79
2021/07/08 09:03:25;;;;;;;6.80;3.90;;;26.40;99.90;;;;;;5048269;28;20099;-79
2021/07/08 09:06:06;;;;;;;4.93;2.35;;;26.50;99.90;;;;;;5047019;28;20233;-78
2021/07/08 09:08:37;;;;;;;8.88;2.90;;;26.70;99.90;;;;;;5037599;28;20202;-78
2021/07/08 09:11:07;;;;;;;6.43;3.08;;;26.90;99.90;;;;;;5035256;28;20230;-79
2021/07/08 09:13:54;;;;;;;5.93;3.70;;;26.90;99.90;;;;;;5036124;28;20203;-80
2021/07/08 09:16:23;;;;;;;5.75;3.63;;;27.10;99.90;;;;;;5028914;28;20199;-79
2021/07/08 09:18:59;;;;;;;10.20;3.80;;;27.30;99.90;;;;;;5037778;28;20215;-79
2021/07/08 09:21:26;;;;;;;10.38;3.92;;;27.50;99.90;;;;;;5050562;28;20194;-79
2021/07/08 09:24:10;;;;;;;11.63;3.60;;;27.40;99.90;;;;;;5032884;28;20293;-78
2021/07/08 09:26:39;;;;;;;3.55;3.08;;;27.30;99.90;;;;;;5048135;28;20765;-78
2021/07/08 09:29:09;;;;;;;5.10;3.30;;;27.20;99.90;;;;;;5041847;28;20198;-78
2021/07/08 09:31:37;;;;;;;9.50;4.28;;;27.20;99.90;;;;;;5035737;28;20222;-78
2021/07/08 09:34:22;;;;;;;8.45;3.65;;;26.90;99.90;;;;;;5030234;28;20199;-78
2021/07/08 09:37:06;;;;;;;5.00;3.50;;;26.80;99.90;;;;;;5028273;28;20219;-78
2021/07/08 09:39:35;;;;;;;5.95;3.60;;;27.00;99.90;;;;;;5042314;28;20232;-78
2021/07/08 09:42:03;;;;;;;9.70;3.92;;;27.30;99.90;;;;;;5033608;28;20207;-78
2021/07/08 09:44:30;;;;;;;18.63;3.60;;;27.40;99.90;;;;;;5034481;28;20200;-79
2021/07/08 09:46:59;;;;;;;7.82;3.85;;;27.60;99.90;;;;;;5039450;28;20316;-79
2021/07/08 09:49:28;;;;;;;6.20;4.35;;;27.70;99.90;;;;;;5030086;28;20203;-78
2021/07/08 09:51:55;;;;;;;31.02;5.03;;;27.50;99.90;;;;;;5028484;28;20245;-79
2021/07/08 09:54:48;;;;;;;7.82;4.75;;;27.10;99.90;;;;;;5040118;28;20225;-78
2021/07/08 09:57:35;;;;;;;30.50;4.90;;;26.50;99.90;;;;;;5036972;28;20644;-79
2021/07/08 10:00:27;;;;;;;11.82;4.65;;;26.30;99.90;;;;;;5034336;28;20226;-79
2021/07/08 10:08:24;;;;;;;11.98;4.47;;;26.40;99.90;;;;;;5086134;28;20197;-78
2021/07/08 10:10:51;;;;;;;10.15;4.15;;;26.50;99.90;;;;;;5094445;28;20247;-78
2021/07/08 10:18:54;;;;;;;10.82;4.13;;;27.10;99.90;;;;;;5088230;28;20208;-77
2021/07/08 10:24:13;;;;;;;7.20;4.25;;;27.00;99.90;;;;;;5083632;28;20228;-78
2021/07/08 10:29:29;;;;;;;9.05;4.80;;;27.00;99.90;;;;;;5091700;28;20221;-78
2021/07/08 10:34:45;;;;;;;12.98;5.18;;;27.10;99.90;;;;;;5088570;28;20268;-79
2021/07/08 10:37:28;;;;;;;10.15;5.32;;;26.40;99.90;;;;;;5090274;28;20250;-79
2021/07/08 10:40:26;;;;;;;13.82;4.40;;;26.30;99.90;;;;;;5095567;28;20223;-79
2021/07/08 10:42:53;;;;;;;5.55;4.15;;;26.30;99.90;;;;;;5091884;28;20252;-79
2021/07/08 10:45:52;;;;;;;7.05;4.63;;;26.40;99.90;;;;;;5088574;28;20193;-79
2021/07/08 10:48:25;;;;;;;9.63;4.55;;;26.50;99.90;;;;;;5089320;28;20200;-79
2021/07/08 10:53:44;;;;;;;8.07;3.80;;;26.50;99.90;;;;;;5087350;28;20275;-79
2021/07/08 10:56:32;;;;;;;10.48;4.28;;;26.50;99.90;;;;;;5082160;28;20205;-79
2021/07/08 10:59:00;;;;;;;11.80;3.30;;;26.50;99.90;;;;;;5081623;28;20201;-79
2021/07/08 11:01:44;;;;;;;6.35;3.13;;;26.60;99.90;;;;;;5082119;28;20205;-78
2021/07/08 11:10:07;;;;;;;4.50;3.00;;;26.40;99.90;;;;;;5082688;28;20209;-79
2021/07/08 11:12:50;;;;;;;7.03;3.80;;;26.30;99.90;;;;;;5087867;28;20205;-79
2021/07/08 11:15:24;;;;;;;4.60;3.03;;;26.30;99.90;;;;;;5073264;28;20194;-79
2021/07/08 11:17:59;;;;;;;11.98;3.70;;;26.30;99.90;;;;;;5072695;28;20197;-79
2021/07/08 11:26:51;;;;;;;4.80;3.20;;;26.30;99.90;;;;;;5074165;28;20610;-79
2021/07/08 11:29:34;;;;;;;6.22;2.97;;;26.50;99.90;;;;;;5067725;28;20229;-79
2021/07/08 11:32:02;;;;;;;12.40;3.08;;;26.60;99.90;;;;;;5069817;28;20235;-79
2021/07/08 11:34:29;;;;;;;5.95;3.00;;;26.70;99.90;;;;;;5069195;28;20206;-79
2021/07/08 11:36:58;;;;;;;12.57;3.33;;;26.80;99.90;;;;;;5071227;28;20214;-78
2021/07/08 11:45:00;;;;;;;5.20;3.50;;;26.80;99.90;;;;;;5067962;28;20229;-79
2021/07/08 11:47:35;;;;;;;10.57;3.50;;;26.60;99.90;;;;;;5076767;28;20197;-79
2021/07/08 11:55:30;;;;;;;5.70;2.42;;;26.80;99.90;;;;;;5067360;28;20201;-79
2021/07/08 12:00:56;;;;;;;11.43;3.33;;;26.80;99.90;;;;;;5066820;28;20206;-79
2021/07/08 12:03:26;;;;;;;3.22;2.15;;;26.80;99.90;;;;;;5073650;28;20233;-78
2021/07/08 12:08:42;;;;;;;11.32;2.58;;;27.00;99.90;;;;;;5067367;28;20194;-79
2021/07/08 12:16:40;;;;;;;6.22;2.55;;;26.90;99.90;;;;;;5071421;28;20237;-79
2021/07/08 12:24:44;;;;;;;2.28;1.77;;;26.70;99.90;;;;;;5066039;28;20231;-79
2021/07/08 12:29:59;;;;;;;5.25;2.33;;;26.90;99.90;;;;;;5069545;28;20208;-79
2021/07/08 12:32:42;;;;;;;3.15;2.47;;;26.80;99.90;;;;;;5074853;28;20726;-79
2021/07/08 12:37:51;;;;;;;5.93;2.42;;;26.60;99.90;;;;;;5070777;28;20217;-79
2021/07/08 12:43:08;;;;;;;4.30;2.13;;;26.60;99.90;;;;;;5072029;28;20220;-79
2021/07/08 12:45:36;;;;;;;5.18;2.00;;;26.60;99.90;;;;;;5070764;28;20198;-79
2021/07/08 12:48:07;;;;;;;2.95;1.88;;;26.70;99.90;;;;;;5074699;28;20224;-79
2021/07/08 12:50:36;;;;;;;2.33;1.73;;;26.70;99.90;;;;;;5077840;28;20246;-79
2021/07/08 13:01:18;;;;;;;5.43;2.15;;;26.50;99.90;;;;;;5069444;28;20262;-79
2021/07/08 13:06:30;;;;;;;9.32;1.70;;;26.50;99.90;;;;;;5074311;28;20220;-79
2021/07/08 13:09:06;;;;;;;4.97;1.98;;;26.50;99.90;;;;;;5070053;28;20285;-80
2021/07/08 13:14:17;;;;;;;5.15;2.40;;;26.70;99.90;;;;;;5076346;28;20209;-78
2021/07/08 13:17:01;;;;;;;9.55;2.75;;;26.60;99.90;;;;;;5071030;28;20269;-80
2021/07/08 13:19:30;;;;;;;6.38;3.00;;;26.50;99.90;;;;;;5069755;28;20202;-79
2021/07/08 13:21:57;;;;;;;4.05;3.20;;;26.60;99.90;;;;;;5068996;28;20259;-78
2021/07/08 13:24:25;;;;;;;8.63;3.50;;;26.60;99.90;;;;;;5067214;28;20232;-79
2021/07/08 13:26:53;;;;;;;5.63;3.28;;;26.70;99.90;;;;;;5066354;28;20231;-78
2021/07/08 13:29:25;;;;;;;8.68;3.53;;;26.80;99.90;;;;;;5074348;28;20261;-78
2021/07/08 13:31:52;;;;;;;6.03;3.72;;;26.90;99.90;;;;;;5066621;28;20260;-79
2021/07/08 13:37:05;;;;;;;10.43;4.10;;;26.90;99.90;;;;;;5072753;28;20201;-78
2021/07/08 13:39:32;;;;;;;7.00;3.25;;;26.80;99.90;;;;;;5067654;28;20628;-78
2021/07/08 13:42:05;;;;;;;8.63;3.22;;;26.50;99.90;;;;;;5071508;28;20201;-78
2021/07/08 13:44:36;;;;;;;17.13;5.15;;;26.50;99.90;;;;;;5073260;28;20251;-79
2021/07/08 13:47:04;;;;;;;10.98;5.03;;;26.50;99.90;;;;;;5068823;28;20210;-78
2021/07/08 13:49:33;;;;;;;12.00;4.30;;;26.40;99.90;;;;;;5068758;28;20231;-78
2021/07/08 13:52:02;;;;;;;10.85;4.35;;;26.40;99.90;;;;;;5068489;28;20198;-78
2021/07/08 13:54:32;;;;;;;10.07;4.85;;;26.40;99.90;;;;;;5074383;28;20279;-78
2021/07/08 13:57:00;;;;;;;8.15;4.05;;;26.20;99.90;;;;;;5072042;28;20201;-77
2021/07/08 13:59:27;;;;;;;5.22;3.83;;;26.00;99.90;;;;;;5067604;28;20198;-79
2021/07/08 14:04:35;;;;;;;7.78;3.60;;;26.10;99.90;;;;;;5066915;28;20237;-78
2021/07/08 14:07:03;;;;;;;11.05;4.18;;;26.30;99.90;;;;;;5074492;28;20200;-78
2021/07/08 14:09:33;;;;;;;4.20;3.80;;;26.30;99.90;;;;;;5066112;28;20198;-78
2021/07/08 14:12:01;;;;;;;9.15;4.30;;;26.20;99.90;;;;;;5066222;28;20201;-78
2021/07/08 14:14:31;;;;;;;5.93;4.35;;;26.10;99.90;;;;;;5074903;28;20229;-77
2021/07/08 14:16:58;;;;;;;4.78;3.80;;;26.10;99.90;;;;;;5070637;28;20197;-77
2021/07/08 14:24:48;;;;;;;8.60;3.50;;;26.00;99.90;;;;;;5064185;28;20225;-79
2021/07/08 14:32:38;;;;;;;4.55;3.60;;;25.80;99.90;;;;;;5066406;28;20200;-78
2021/07/08 14:35:06;;;;;;;5.38;3.35;;;25.60;99.90;;;;;;5072501;28;20220;-78
2021/07/08 14:37:33;;;;;;;6.40;3.70;;;25.50;99.90;;;;;;5077338;28;20193;-79
2021/07/08 14:40:01;;;;;;;6.50;4.60;;;25.40;99.90;;;;;;5063935;28;20829;-79
2021/07/08 14:42:36;;;;;;;9.00;3.45;;;25.30;99.90;;;;;;5067288;28;20193;-78
2021/07/08 14:45:10;;;;;;;6.82;2.95;;;25.30;99.90;;;;;;5077258;28;20224;-79
2021/07/08 14:50:26;;;;;;;3.05;2.83;;;25.10;99.90;;;;;;5069685;28;20198;-78
2021/07/08 14:55:50;;;;;;;5.85;3.67;;;24.90;99.90;;;;;;5074841;28;20265;-78
2021/07/08 14:58:17;;;;;;;7.18;3.45;;;24.90;99.90;;;;;;5069455;28;20201;-78
2021/07/08 15:00:44;;;;;;;5.05;2.78;;;24.80;99.90;;;;;;5072122;28;20205;-78
2021/07/08 15:08:33;;;;;;;8.57;3.05;;;25.10;99.90;;;;;;5071996;28;20200;-79
2021/07/08 15:11:01;;;;;;;5.45;2.90;;;25.20;99.90;;;;;;5068130;28;20197;-78
2021/07/08 15:13:31;;;;;;;4.32;3.22;;;25.10;99.90;;;;;;5070275;28;20209;-79
2021/07/08 15:15:58;;;;;;;10.13;4.03;;;24.90;99.90;;;;;;5067573;28;20207;-79